Long Grove, Illinois
Current Conditions -  °F | °C
As of 6:52 PM on Friday 24 Oct 2014 (Local Time) from KPWK Reporting Station
Broken Clouds Broken Clouds  
Wind Chill: 59°   Ceiling: 10000
Heat Index: 59°   Visibility: 10mi
Dew Point: 45°   Wind: 3mph
Humidity: 60%   Direction: 160°SSE
Pressure: 29.96"   Gusts: NA
Location:  42.18°N, 88°W
Report Text: KPWK 242352Z 16003KT 10SM BKN100 15/07 A2996 RMK AO2 SLP147 T01500072 10206 20150 55003
Loading
Personal Weather Stations






























Interactive Weather Map
Tropical Storm Tracking
New forecast layout! Learn more

10-Day Weather Forecast

Advertisements
Track Severe Weather on mobile